Time;durP1;ratioP1;P1;durP2;ratioP2;P2;SDS_P1;SDS_P2;PMS_P1;PMS_P2;Temp;Humidity;BMP_temperature;BMP_pressure;BME280_temperature;BME280_humidity;BME280_pressure;Samples;Min_cycle;Max_cycle;Signal;HPM_P1;HPM_P2
2022/04/09 00:01:53;;;;;;;6.60;1.40;;;19.40;98.40;;;;;;5110854;28;20524;-77
2022/04/09 00:04:20;;;;;;;7.95;1.20;;;19.50;98.40;;;;;;5093325;28;20031;-76
2022/04/09 00:06:48;;;;;;;8.95;1.50;;;19.40;98.30;;;;;;5086756;28;20044;-80
2022/04/09 00:09:15;;;;;;;8.57;1.48;;;19.40;98.30;;;;;;5082712;28;20393;-73
2022/04/09 00:11:42;;;;;;;10.90;1.80;;;19.30;98.20;;;;;;5091193;28;20027;-72
2022/04/09 00:14:09;;;;;;;8.50;1.67;;;19.30;98.10;;;;;;5076723;28;20044;-77
2022/04/09 00:16:36;;;;;;;12.70;2.03;;;19.10;97.80;;;;;;5105116;27;20050;-79
2022/04/09 00:19:03;;;;;;;10.80;1.95;;;19.00;97.60;;;;;;5115724;27;20077;-78
2022/04/09 00:21:31;;;;;;;12.95;1.92;;;19.00;97.70;;;;;;5128232;27;20059;-77
2022/04/09 00:23:58;;;;;;;7.80;1.45;;;19.10;98.00;;;;;;5131748;27;20038;-77
2022/04/09 00:26:25;;;;;;;11.70;1.85;;;19.20;98.00;;;;;;5116511;27;20181;-79
2022/04/09 00:28:53;;;;;;;7.50;1.45;;;19.20;98.00;;;;;;5092426;28;20444;-77
2022/04/09 00:31:20;;;;;;;9.77;1.67;;;19.20;97.90;;;;;;5117979;27;20297;-75
2022/04/09 00:33:47;;;;;;;10.68;2.00;;;19.20;98.00;;;;;;5150719;27;20083;-77
2022/04/09 00:36:14;;;;;;;15.32;1.50;;;19.30;98.10;;;;;;5130783;27;20027;-82
2022/04/09 00:38:42;;;;;;;4.07;1.50;;;19.30;98.00;;;;;;5126108;27;20110;-74
2022/04/09 00:41:12;;;;;;;16.67;2.58;;;19.30;97.90;;;;;;5130591;27;20035;-82
2022/04/09 00:43:42;;;;;;;10.75;1.67;;;19.30;98.00;;;;;;5106661;28;20110;-74
2022/04/09 00:46:11;;;;;;;9.23;1.40;;;19.30;97.90;;;;;;5095816;27;20465;-72
2022/04/09 00:48:39;;;;;;;11.60;1.63;;;19.30;97.90;;;;;;5110353;27;20519;-71
2022/04/09 00:51:06;;;;;;;11.25;1.40;;;19.40;97.90;;;;;;5094642;28;20024;-73
2022/04/09 00:53:35;;;;;;;8.73;1.65;;;19.30;97.80;;;;;;5093717;27;20037;-76
2022/04/09 00:56:21;;;;;;;5.77;1.60;;;19.30;97.50;;;;;;5111875;27;20041;-74
2022/04/09 00:58:55;;;;;;;7.32;1.60;;;19.30;97.50;;;;;;5099346;27;20055;-81
2022/04/09 01:01:28;;;;;;;8.68;1.67;;;19.40;97.50;;;;;;5103568;28;20559;-78
2022/04/09 01:03:55;;;;;;;9.55;1.73;;;19.50;97.60;;;;;;5064468;28;20024;-74
2022/04/09 01:06:23;;;;;;;10.32;2.00;;;19.60;97.60;;;;;;5083006;28;20043;-77
2022/04/09 01:08:50;;;;;;;9.95;1.75;;;19.60;97.50;;;;;;5094518;28;20031;-76
2022/04/09 01:11:17;;;;;;;9.75;1.85;;;19.60;97.30;;;;;;5112038;28;20031;-75
2022/04/09 01:13:44;;;;;;;5.47;1.48;;;19.70;97.40;;;;;;5106145;28;20024;-75
2022/04/09 01:16:12;;;;;;;10.70;1.90;;;19.80;97.20;;;;;;5079322;28;20027;-75
2022/04/09 01:18:41;;;;;;;9.05;2.15;;;19.80;97.20;;;;;;5106821;28;20114;-75
2022/04/09 01:21:08;;;;;;;9.88;1.58;;;19.90;97.20;;;;;;5124952;28;20039;-73
2022/04/09 01:23:35;;;;;;;10.48;1.60;;;20.00;97.10;;;;;;5084503;28;20031;-73
2022/04/09 01:26:05;;;;;;;9.10;1.92;;;20.00;97.20;;;;;;5097369;28;20027;-77
2022/04/09 01:28:33;;;;;;;8.52;2.00;;;20.10;97.30;;;;;;5078713;28;20031;-77
2022/04/09 01:31:00;;;;;;;9.57;1.98;;;20.20;97.30;;;;;;5098532;28;20038;-79
2022/04/09 01:33:27;;;;;;;9.90;1.83;;;20.20;97.20;;;;;;5131396;28;20391;-72
2022/04/09 01:35:54;;;;;;;11.27;2.10;;;20.10;97.00;;;;;;5079159;28;20311;-75
2022/04/09 01:38:22;;;;;;;17.23;2.25;;;20.10;97.00;;;;;;5101789;28;20031;-73
2022/04/09 01:40:49;;;;;;;15.30;2.28;;;20.00;97.30;;;;;;5092188;28;20089;-78
2022/04/09 01:43:17;;;;;;;9.77;1.92;;;19.90;97.20;;;;;;5111050;28;20584;-77
2022/04/09 01:45:44;;;;;;;12.60;1.73;;;19.80;97.10;;;;;;5076392;28;20028;-75
2022/04/09 01:48:11;;;;;;;10.88;1.85;;;19.70;97.20;;;;;;5113429;28;20054;-73
2022/04/09 01:50:38;;;;;;;20.63;2.58;;;19.70;97.40;;;;;;5131069;27;20027;-76
2022/04/09 01:53:06;;;;;;;8.48;2.05;;;19.70;97.60;;;;;;5124244;28;20183;-73
2022/04/09 01:55:33;;;;;;;14.73;2.22;;;19.70;97.70;;;;;;5129034;28;20024;-72
2022/04/09 01:58:00;;;;;;;13.50;2.08;;;19.80;97.80;;;;;;5126298;28;20032;-71
2022/04/09 02:00:27;;;;;;;17.33;2.70;;;19.80;97.90;;;;;;5096662;28;20477;-74
2022/04/09 02:08:56;;;;;;;11.55;2.00;;;19.70;97.60;;;;;;5107804;28;20058;-73
2022/04/09 02:11:23;;;;;;;18.52;2.38;;;19.70;97.70;;;;;;5112532;28;20111;-73
2022/04/09 02:13:54;;;;;;;7.22;1.50;;;19.70;97.70;;;;;;5113800;28;20081;-72
2022/04/09 02:16:20;;;;;;;;;;;19.80;97.80;;;;;;5114430;28;20039;-75
2022/04/09 02:18:48;;;;;;;9.77;1.52;;;19.80;97.70;;;;;;5114027;28;19911;-72
2022/04/09 02:21:15;;;;;;;11.48;1.85;;;19.80;97.60;;;;;;5095518;28;20040;-72
2022/04/09 02:23:42;;;;;;;11.70;1.70;;;19.80;97.50;;;;;;5094562;28;20035;-71
2022/04/09 02:26:09;;;;;;;16.95;2.38;;;19.90;97.50;;;;;;5095192;28;20052;-72
2022/04/09 02:28:36;;;;;;;11.48;2.22;;;19.80;97.40;;;;;;5110343;28;20032;-72
2022/04/09 02:31:03;;;;;;;12.80;1.80;;;19.90;97.50;;;;;;5115361;27;20023;-72
2022/04/09 02:33:30;;;;;;;15.45;2.03;;;20.00;97.50;;;;;;5114716;27;20039;-72
2022/04/09 02:35:58;;;;;;;14.82;2.17;;;20.00;97.30;;;;;;5078200;28;20032;-77
2022/04/09 02:38:25;;;;;;;10.55;1.80;;;19.90;96.90;;;;;;5077307;28;20035;-77
2022/04/09 02:40:52;;;;;;;11.85;1.98;;;19.90;96.90;;;;;;5095171;28;20036;-77
2022/04/09 02:43:20;;;;;;;13.95;2.25;;;19.80;96.50;;;;;;5112669;28;20370;-79
2022/04/09 02:45:47;;;;;;;14.25;2.90;;;19.80;96.30;;;;;;5113221;28;20388;-77
2022/04/09 02:48:15;;;;;;;12.15;1.92;;;19.80;96.40;;;;;;5094981;28;20032;-72
2022/04/09 02:50:42;;;;;;;7.45;1.70;;;19.70;96.80;;;;;;5112680;28;20055;-73
2022/04/09 02:53:12;;;;;;;6.00;1.40;;;19.70;96.60;;;;;;5102169;27;20100;-76
2022/04/09 02:55:39;;;;;;;9.10;1.65;;;19.70;96.70;;;;;;5120857;27;20106;-72
2022/04/09 02:58:07;;;;;;;4.47;1.40;;;19.60;96.60;;;;;;5126825;27;20131;-73
2022/04/09 03:00:34;;;;;;;10.02;1.85;;;19.60;96.90;;;;;;5106375;28;20036;-74
2022/04/09 03:03:01;;;;;;;12.88;1.80;;;19.60;97.00;;;;;;5096657;27;20047;-73
2022/04/09 03:05:28;;;;;;;9.35;1.52;;;19.50;96.70;;;;;;5114571;27;20031;-75
2022/04/09 03:07:55;;;;;;;13.13;1.85;;;19.50;96.70;;;;;;5106935;27;20096;-75
2022/04/09 03:10:22;;;;;;;13.00;1.88;;;19.50;96.90;;;;;;5091807;28;20409;-74
2022/04/09 03:12:50;;;;;;;12.05;2.33;;;19.50;96.90;;;;;;5123277;27;20485;-72
2022/04/09 03:15:17;;;;;;;15.45;2.25;;;19.50;97.00;;;;;;5112475;27;20109;-73
2022/04/09 03:17:44;;;;;;;11.43;1.70;;;19.50;97.10;;;;;;5105309;28;20027;-76
2022/04/09 03:20:12;;;;;;;8.38;1.77;;;19.50;97.10;;;;;;5069252;27;20444;-76
2022/04/09 03:22:45;;;;;;;8.60;1.60;;;19.50;96.80;;;;;;5127093;27;20061;-73
2022/04/09 03:25:12;;;;;;;5.80;1.40;;;19.40;96.70;;;;;;5109906;28;20466;-75
2022/04/09 03:27:39;;;;;;;8.18;1.83;;;19.40;96.30;;;;;;5090095;28;20048;-72
2022/04/09 03:30:10;;;;;;;6.70;1.45;;;19.40;96.40;;;;;;5110864;27;20035;-74
2022/04/09 03:32:41;;;;;;;7.47;1.50;;;19.40;96.20;;;;;;5076881;28;20043;-77
2022/04/09 03:35:09;;;;;;;9.15;1.88;;;19.30;96.10;;;;;;5111959;27;20024;-71
2022/04/09 03:37:37;;;;;;;11.60;1.98;;;19.40;96.40;;;;;;5113723;27;20546;-74
2022/04/09 03:40:05;;;;;;;10.25;1.92;;;19.50;96.40;;;;;;5097368;27;20027;-76
2022/04/09 03:42:32;;;;;;;12.65;2.20;;;19.60;96.60;;;;;;5092397;28;20139;-76
2022/04/09 03:45:00;;;;;;;12.45;1.88;;;19.70;96.60;;;;;;5083097;28;20054;-76
2022/04/09 03:47:27;;;;;;;9.82;2.22;;;19.60;95.90;;;;;;5098413;28;20043;-72
2022/04/09 03:49:54;;;;;;;16.63;2.25;;;19.70;95.90;;;;;;5109640;28;20049;-73
2022/04/09 03:52:21;;;;;;;13.25;2.40;;;19.80;96.10;;;;;;5093075;28;20466;-75
2022/04/09 03:54:48;;;;;;;17.23;2.35;;;19.70;95.80;;;;;;5110705;28;20027;-75
2022/04/09 03:57:16;;;;;;;15.80;2.35;;;19.80;96.00;;;;;;5095038;28;20031;-76
2022/04/09 03:59:43;;;;;;;10.68;2.00;;;19.80;95.70;;;;;;5093733;27;20426;-73
2022/04/09 04:02:10;;;;;;;15.80;3.05;;;19.80;96.10;;;;;;5108784;28;20447;-73
2022/04/09 04:04:38;;;;;;;12.98;2.40;;;19.90;96.10;;;;;;5109697;28;20065;-73
2022/04/09 04:07:05;;;;;;;13.88;2.10;;;19.90;96.30;;;;;;5102334;28;20067;-72
2022/04/09 04:09:32;;;;;;;14.13;2.20;;;20.00;95.90;;;;;;5101822;28;20028;-72
2022/04/09 04:12:00;;;;;;;14.32;2.55;;;20.00;96.00;;;;;;5100604;28;20439;-73
2022/04/09 04:14:28;;;;;;;14.73;2.50;;;20.00;96.10;;;;;;5096611;28;20059;-73
2022/04/09 04:42:49;;;;;;;12.68;2.30;;;20.10;94.70;;;;;;3404178;26;20054;-69
2022/04/09 04:45:17;;;;;;;9.52;2.00;;;20.10;94.20;;;;;;5084840;28;20024;-69
2022/04/09 04:47:48;;;;;;;5.90;1.67;;;20.10;94.20;;;;;;5110286;28;20123;-69
2022/04/09 04:50:15;;;;;;;8.02;1.70;;;20.10;94.70;;;;;;5110360;28;20054;-69
2022/04/09 04:52:43;;;;;;;13.50;1.90;;;20.10;94.40;;;;;;5087742;28;20464;-69
2022/04/09 04:55:10;;;;;;;12.30;2.47;;;20.10;94.50;;;;;;5090480;28;20024;-68
2022/04/09 04:57:55;;;;;;;7.05;1.75;;;20.00;94.30;;;;;;5096494;28;20028;-69
2022/04/09 05:00:23;;;;;;;8.80;2.17;;;20.00;94.60;;;;;;5111794;27;20028;-69
2022/04/09 05:02:51;;;;;;;7.88;1.88;;;20.00;94.60;;;;;;5102991;28;20160;-68
2022/04/09 05:05:19;;;;;;;11.80;2.20;;;20.00;94.40;;;;;;5091224;28;20023;-69
2022/04/09 05:07:50;;;;;;;13.43;2.03;;;20.00;94.70;;;;;;5081643;28;20032;-69
2022/04/09 05:10:22;;;;;;;12.05;1.90;;;20.00;94.10;;;;;;5108411;28;20036;-69
2022/04/09 05:12:49;;;;;;;16.70;2.45;;;20.00;93.60;;;;;;5074071;28;20031;-69
2022/04/09 05:15:17;;;;;;;11.05;2.60;;;20.00;93.10;;;;;;5107610;28;20115;-68
2022/04/09 05:17:44;;;;;;;11.02;2.20;;;20.00;93.50;;;;;;5078471;28;20126;-69
2022/04/09 05:20:14;;;;;;;13.65;1.98;;;20.00;92.90;;;;;;5083778;28;20159;-68
2022/04/09 05:22:44;;;;;;;14.20;2.40;;;20.10;93.70;;;;;;5092781;28;20435;-68
2022/04/09 05:25:13;;;;;;;9.48;1.90;;;20.00;93.00;;;;;;5085773;28;20115;-68
2022/04/09 05:27:43;;;;;;;12.95;2.13;;;20.10;93.50;;;;;;5102723;28;20402;-67
2022/04/09 05:30:10;;;;;;;10.95;1.92;;;20.10;92.50;;;;;;5110810;28;20486;-68
2022/04/09 05:32:39;;;;;;;11.35;1.83;;;20.10;92.90;;;;;;5094617;28;20032;-67
2022/04/09 05:35:07;;;;;;;11.30;2.40;;;20.20;92.20;;;;;;5111662;28;20118;-68
2022/04/09 05:37:35;;;;;;;13.25;2.63;;;20.20;92.10;;;;;;5120858;28;20027;-69
2022/04/09 05:40:04;;;;;;;6.45;1.67;;;20.30;91.70;;;;;;5109869;28;20115;-69
2022/04/09 05:42:32;;;;;;;10.57;2.17;;;20.30;92.30;;;;;;5116783;28;20404;-69
2022/04/09 05:44:59;;;;;;;16.27;2.42;;;20.30;92.70;;;;;;5117961;27;20020;-69
2022/04/09 05:47:26;;;;;;;14.02;2.17;;;20.20;91.00;;;;;;5114276;28;20082;-69
2022/04/09 05:49:53;;;;;;;10.32;1.60;;;20.20;92.00;;;;;;5121194;27;20027;-69
2022/04/09 05:52:20;;;;;;;11.63;2.08;;;20.20;91.40;;;;;;5114279;27;20042;-69
2022/04/09 05:54:48;;;;;;;12.75;2.13;;;20.20;91.70;;;;;;5110384;27;20040;-69
2022/04/09 05:57:16;;;;;;;8.13;2.25;;;20.30;92.10;;;;;;5123760;27;21164;-69
2022/04/09 05:59:44;;;;;;;13.80;2.42;;;20.30;92.50;;;;;;5095254;28;20035;-69
2022/04/09 06:02:11;;;;;;;7.90;1.70;;;20.20;90.60;;;;;;5132529;27;20149;-69
2022/04/09 06:04:38;;;;;;;7.50;2.00;;;20.30;91.80;;;;;;5119204;27;20081;-68
2022/04/09 06:07:05;;;;;;;14.00;1.98;;;20.30;91.70;;;;;;5124529;27;20043;-68
2022/04/09 06:09:32;;;;;;;14.80;2.20;;;20.20;91.10;;;;;;5121790;27;20489;-68
2022/04/09 06:11:59;;;;;;;11.77;2.38;;;20.30;91.40;;;;;;5103733;28;20047;-68
2022/04/09 06:14:27;;;;;;;9.80;1.92;;;20.30;91.30;;;;;;5097438;28;20024;-68
2022/04/09 06:16:54;;;;;;;9.50;1.73;;;20.30;91.50;;;;;;5105871;28;20493;-68
2022/04/09 06:19:21;;;;;;;7.68;1.65;;;20.30;90.60;;;;;;5103318;28;20035;-68
2022/04/09 06:21:48;;;;;;;10.05;2.10;;;20.30;90.40;;;;;;5113672;28;20558;-69
2022/04/09 06:24:15;;;;;;;14.63;2.40;;;20.40;90.50;;;;;;5095369;28;20100;-69
2022/04/09 06:26:42;;;;;;;15.15;2.15;;;20.40;90.80;;;;;;5109125;28;20040;-69
2022/04/09 06:29:09;;;;;;;11.75;2.55;;;20.40;89.70;;;;;;5096229;28;20464;-68
2022/04/09 06:31:37;;;;;;;9.90;2.40;;;20.40;90.30;;;;;;5113516;28;20045;-68
2022/04/09 06:34:04;;;;;;;11.73;2.25;;;20.40;89.20;;;;;;5113217;28;20228;-67
2022/04/09 06:36:31;;;;;;;9.43;1.92;;;20.50;89.70;;;;;;5110268;28;20023;-67
2022/04/09 06:38:58;;;;;;;13.10;2.42;;;20.40;89.50;;;;;;5106213;28;20044;-67
2022/04/09 06:41:25;;;;;;;8.68;1.95;;;20.40;89.40;;;;;;5056683;28;20059;-69
2022/04/09 06:43:53;;;;;;;14.35;2.40;;;20.40;89.30;;;;;;5072942;28;20386;-68
2022/04/09 06:46:20;;;;;;;12.95;2.35;;;20.40;89.10;;;;;;5072560;28;20072;-67
2022/04/09 06:48:47;;;;;;;12.85;2.10;;;20.40;88.90;;;;;;5054847;28;20112;-68
2022/04/09 06:51:15;;;;;;;14.38;2.03;;;20.40;88.70;;;;;;5075574;28;20056;-67
2022/04/09 06:53:42;;;;;;;10.27;1.70;;;20.30;87.70;;;;;;5076062;28;20616;-68
2022/04/09 06:56:09;;;;;;;10.48;2.13;;;20.40;88.00;;;;;;5072293;28;20037;-67
2022/04/09 06:58:36;;;;;;;10.18;1.52;;;20.30;87.60;;;;;;5054866;28;20043;-67
2022/04/09 07:01:04;;;;;;;7.60;1.58;;;20.30;88.00;;;;;;5038100;28;20047;-67
2022/04/09 07:03:31;;;;;;;13.45;1.90;;;20.30;88.10;;;;;;5082508;28;20028;-67
2022/04/09 07:05:58;;;;;;;10.10;1.88;;;20.20;86.90;;;;;;5092462;28;20036;-67
2022/04/09 07:08:25;;;;;;;8.18;1.85;;;20.20;86.90;;;;;;5074145;28;20032;-67
2022/04/09 07:10:53;;;;;;;12.18;2.08;;;20.30;87.30;;;;;;5092101;28;20048;-67
2022/04/09 07:13:20;;;;;;;9.13;1.92;;;20.20;87.60;;;;;;5090342;28;20370;-67
2022/04/09 07:15:47;;;;;;;9.30;2.15;;;20.30;87.30;;;;;;5086943;28;20086;-67
2022/04/09 07:18:14;;;;;;;10.10;1.90;;;20.30;88.00;;;;;;5092313;28;20387;-68
2022/04/09 07:20:43;;;;;;;9.73;2.00;;;20.20;88.10;;;;;;5092173;28;20036;-68
2022/04/09 07:23:10;;;;;;;14.32;2.45;;;20.30;88.50;;;;;;5091944;28;20039;-67
2022/04/09 07:25:38;;;;;;;10.15;1.90;;;20.20;87.40;;;;;;5091852;28;20028;-68
2022/04/09 07:28:05;;;;;;;9.75;1.80;;;20.20;87.20;;;;;;5077532;28;20029;-67
2022/04/09 07:30:32;;;;;;;14.38;2.10;;;20.30;87.50;;;;;;5071786;28;20024;-67
2022/04/09 07:32:59;;;;;;;12.85;2.10;;;20.30;87.40;;;;;;5071769;28;20036;-67
2022/04/09 07:35:27;;;;;;;14.90;2.25;;;20.20;87.30;;;;;;5053188;28;20505;-67
2022/04/09 07:37:55;;;;;;;13.20;2.03;;;20.20;87.50;;;;;;5092750;28;20165;-67
2022/04/09 07:40:27;;;;;;;11.35;2.10;;;20.20;87.30;;;;;;5071429;28;20483;-67
2022/04/09 07:42:55;;;;;;;14.68;2.05;;;20.20;87.40;;;;;;5083507;28;20051;-67
2022/04/09 07:45:22;;;;;;;11.10;2.40;;;20.30;86.80;;;;;;5086122;28;20039;-68
2022/04/09 07:48:11;;;;;;;8.90;1.95;;;20.20;86.70;;;;;;5090433;28;20032;-67
2022/04/09 07:50:38;;;;;;;10.85;1.80;;;20.30;86.40;;;;;;5086925;28;21219;-67
2022/04/09 07:53:08;;;;;;;13.35;2.40;;;20.30;86.50;;;;;;5100323;28;20031;-67
2022/04/09 07:55:35;;;;;;;14.47;1.90;;;20.20;86.70;;;;;;5067491;28;20032;-67
2022/04/09 07:58:02;;;;;;;9.38;2.10;;;20.20;86.00;;;;;;5068744;28;20344;-67
2022/04/09 08:00:29;;;;;;;10.57;2.15;;;20.30;86.30;;;;;;5083244;28;20037;-68
2022/04/09 08:02:57;;;;;;;12.02;2.13;;;20.20;86.80;;;;;;5036679;28;20048;-67
2022/04/09 08:05:24;;;;;;;11.80;2.17;;;20.20;86.90;;;;;;5076590;28;20473;-67
2022/04/09 08:07:51;;;;;;;12.88;2.15;;;20.20;87.00;;;;;;5085053;28;20118;-67
2022/04/09 08:10:19;;;;;;;9.57;2.20;;;20.20;87.30;;;;;;5091265;28;20048;-67
2022/04/09 08:12:48;;;;;;;12.73;2.30;;;20.20;87.20;;;;;;5079142;28;20028;-66
2022/04/09 08:15:18;;;;;;;10.15;1.90;;;20.20;86.50;;;;;;5086167;28;20461;-67
2022/04/09 08:17:45;;;;;;;7.82;1.90;;;20.20;86.40;;;;;;5100088;28;20031;-67
2022/04/09 08:20:14;;;;;;;10.88;1.85;;;20.20;85.80;;;;;;5091141;28;20056;-67
2022/04/09 08:22:42;;;;;;;7.97;2.20;;;20.20;85.60;;;;;;5097883;28;20459;-67
2022/04/09 08:25:09;;;;;;;7.50;1.55;;;20.20;86.30;;;;;;5107653;28;20102;-67
2022/04/09 08:27:38;;;;;;;15.82;2.30;;;20.20;86.30;;;;;;5090460;28;20067;-68
2022/04/09 08:30:06;;;;;;;8.63;2.25;;;20.20;85.40;;;;;;5084630;28;20107;-67
2022/04/09 08:32:34;;;;;;;16.92;2.42;;;20.20;85.90;;;;;;5088322;28;20112;-67
2022/04/09 08:35:01;;;;;;;14.90;2.30;;;20.20;86.10;;;;;;5079992;28;20402;-67
2022/04/09 08:37:29;;;;;;;6.68;1.80;;;20.20;85.90;;;;;;5066863;28;20028;-68
2022/04/09 08:39:56;;;;;;;11.70;1.80;;;20.20;86.10;;;;;;5061339;28;20048;-68
2022/04/09 08:42:23;;;;;;;13.05;2.28;;;20.20;85.60;;;;;;5077416;28;20114;-67
2022/04/09 08:44:50;;;;;;;9.50;2.40;;;20.20;85.50;;;;;;5071225;28;20035;-67
2022/04/09 08:47:18;;;;;;;9.80;1.75;;;20.20;85.30;;;;;;5079096;28;20028;-67
2022/04/09 08:49:46;;;;;;;12.55;1.98;;;20.20;85.30;;;;;;5076741;28;20104;-67
2022/04/09 08:52:15;;;;;;;8.10;1.63;;;20.20;85.60;;;;;;5077951;28;20036;-66
2022/04/09 08:54:42;;;;;;;8.63;1.80;;;20.20;85.70;;;;;;5083889;28;20074;-67
2022/04/09 08:57:10;;;;;;;12.15;1.92;;;20.20;86.10;;;;;;5083790;28;20086;-67
2022/04/09 08:59:37;;;;;;;14.50;2.08;;;20.10;85.60;;;;;;5085199;28;20032;-68
2022/04/09 09:02:05;;;;;;;9.00;1.98;;;20.20;85.90;;;;;;5076328;28;20043;-67
2022/04/09 09:04:32;;;;;;;13.27;2.08;;;20.20;86.30;;;;;;5080259;28;20025;-68
2022/04/09 09:07:20;;;;;;;6.95;1.92;;;20.20;86.50;;;;;;5053664;28;20037;-68
2022/04/09 09:09:47;;;;;;;8.52;2.00;;;20.20;86.90;;;;;;5072981;28;20033;-68
2022/04/09 09:12:27;;;;;;;12.25;2.30;;;20.20;86.90;;;;;;5055542;28;20076;-68
2022/04/09 09:14:54;;;;;;;8.05;1.83;;;20.10;86.10;;;;;;5072913;28;20034;-68
2022/04/09 09:17:28;;;;;;;11.93;2.10;;;20.20;86.90;;;;;;5072030;28;20109;-68
2022/04/09 09:19:55;;;;;;;9.48;1.98;;;20.10;86.20;;;;;;5093557;28;20024;-68
2022/04/09 09:22:34;;;;;;;7.50;2.13;;;20.10;85.90;;;;;;5094557;28;20070;-68
2022/04/09 09:25:07;;;;;;;11.02;1.95;;;20.10;85.60;;;;;;5075519;28;20474;-68
2022/04/09 09:27:34;;;;;;;12.23;2.40;;;20.10;85.70;;;;;;5069049;28;20076;-68
2022/04/09 09:30:01;;;;;;;6.38;1.85;;;20.10;85.70;;;;;;5076276;28;20028;-68
2022/04/09 09:32:29;;;;;;;8.40;1.52;;;20.10;86.00;;;;;;5093899;28;20490;-67
2022/04/09 09:34:56;;;;;;;8.93;2.20;;;20.10;86.10;;;;;;5093115;28;20655;-68
